UADD

Details ICAO UADD (DMB)
Name TARAZ
Region Kazakhstan and Kyrgyzstan
Timezone Asia/Almaty (UTC+6.0)
Plans Departing 5
Arriving 13
Stats Elevation 2,184 ft / 666 m (AMSL)
Location 42.853533° 71.303693°
Runways 1
Magnetic Variation 5.816° E
Sunrise 2017-12-12 02:37:37 UTC / 2017-12-12 08:37:37 Local
Sunset 2017-12-12 11:42:05 UTC / 2017-12-12 17:42:05 Local
Advertisement - Login to hide

Runways

ID Width Length Bearing (true) Bearing (mag) Surface Threshold Offset Overrun Length
13 148 ft / 45 m 9,523 ft / 2,903 m 137.09° 131.27° Asphalt 0 ft / 0 m 0 ft / 0 m
31 148 ft / 45 m 9,523 ft / 2,903 m 317.11° 311.29° Asphalt 722 ft / 220 m 0 ft / 0 m

Map

Weather


0- 5 10 15 20 25 30 35+ Temperature / ° C

Clouds and Precipitation
Forecast for 2017-12-12 06:00 UTC. Updated 2 hours ago

Ground ~20,000 ft ~40,000 ft Winds

METAR

UADD 120300Z 18001MPS 3800 BR OVC005 M09/M09 Q1023 R13/0///65 NOSIG RMK QBB160 MT OBSC QFE710/0946

TAF

Not found

Frequencies

Tower 120.80 MHz TWR
Approach 122.10 MHz APP
Tower 122.10 MHz TWR
Approach 120.80 MHz APP
Warning: Do not use this data for real-world aviation or navigation. No guarantee of current accuracy is given.